createdAt,value
2022-10-16T00:00:55.916Z,98595.69
2022-10-16T00:03:26.573Z,98584.06
2022-10-16T00:06:00.963Z,98580.66
2022-10-16T00:08:28.441Z,98583.38
2022-10-16T00:11:00.491Z,98584.75
2022-10-16T00:13:27.211Z,98578.38
2022-10-16T00:15:56.940Z,98576.66
2022-10-16T00:18:25.033Z,98581.53
2022-10-16T00:20:52.039Z,98587.34
2022-10-16T00:23:18.966Z,98592.81
2022-10-16T00:25:45.717Z,98591.69
2022-10-16T00:28:12.438Z,98598.75
2022-10-16T00:30:41.121Z,98591.00
2022-10-16T00:33:07.809Z,98582.44
2022-10-16T00:35:34.486Z,98596.13
2022-10-16T00:38:01.129Z,98586.31
2022-10-16T00:40:29.207Z,98592.16
2022-10-16T00:42:56.026Z,98590.53
2022-10-16T00:45:22.765Z,98594.53
2022-10-16T00:47:52.304Z,98595.00
2022-10-16T00:50:27.430Z,98596.94
2022-10-16T00:52:55.433Z,98584.41
2022-10-16T00:55:22.574Z,98591.34
2022-10-16T00:57:50.787Z,98585.09
2022-10-16T01:00:21.447Z,98581.88
2022-10-16T01:03:00.955Z,98583.81
2022-10-16T01:05:35.082Z,98590.09
2022-10-16T01:08:13.567Z,98600.66
2022-10-16T01:10:58.212Z,98605.13
2022-10-16T01:13:35.590Z,98614.03
2022-10-16T01:16:08.864Z,98617.47
2022-10-16T01:18:47.433Z,98614.56
2022-10-16T01:21:19.442Z,98607.94
2022-10-16T01:24:07.444Z,98606.47
2022-10-16T01:26:43.326Z,98614.69
2022-10-16T01:29:20.049Z,98601.47
2022-10-16T01:31:54.574Z,98598.06
2022-10-16T01:34:38.156Z,98593.50
2022-10-16T01:37:16.863Z,98595.56
2022-10-16T01:39:49.185Z,98605.69
2022-10-16T01:42:21.002Z,98605.34
2022-10-16T01:44:49.731Z,98604.53
2022-10-16T01:47:18.210Z,98605.34
2022-10-16T01:49:46.809Z,98609.69
2022-10-16T01:52:22.850Z,98604.69
2022-10-16T01:54:54.190Z,98596.00
2022-10-16T01:57:22.774Z,98599.88
2022-10-16T01:59:55.499Z,98594.41
2022-10-16T02:02:24.054Z,98595.88
2022-10-16T02:04:55.752Z,98595.78
2022-10-16T02:07:23.149Z,98587.13
2022-10-16T02:09:49.842Z,98589.41
2022-10-16T02:12:24.948Z,98583.47
2022-10-16T02:14:51.824Z,98581.88
2022-10-16T02:17:19.092Z,98590.06
2022-10-16T02:19:48.769Z,98590.84
2022-10-16T02:22:44.453Z,98601.94
2022-10-16T02:25:22.924Z,98603.53
2022-10-16T02:28:05.072Z,98599.19
2022-10-16T02:30:37.609Z,98605.13
2022-10-16T02:33:07.843Z,98601.25
2022-10-16T02:35:35.426Z,98596.56
2022-10-16T02:38:03.340Z,98602.84
2022-10-16T02:40:30.149Z,98609.47
2022-10-16T02:42:56.944Z,98603.16
2022-10-16T02:45:24.695Z,98612.19
2022-10-16T02:47:51.383Z,98610.59
2022-10-16T02:50:18.143Z,98608.66
2022-10-16T02:52:44.838Z,98616.84
2022-10-16T02:55:11.521Z,98612.06
2022-10-16T02:57:38.281Z,98612.75
2022-10-16T03:00:06.298Z,98612.28
2022-10-16T03:02:33.040Z,98609.88
2022-10-16T03:04:59.947Z,98611.34
2022-10-16T03:07:26.977Z,98609.28
2022-10-16T03:09:54.144Z,98608.47
2022-10-16T03:12:21.069Z,98617.34
2022-10-16T03:14:48.087Z,98615.28
2022-10-16T03:17:17.590Z,98618.03
2022-10-16T03:19:44.270Z,98621.09
2022-10-16T03:22:11.276Z,98611.63
2022-10-16T03:24:37.965Z,98607.97
2022-10-16T03:27:04.867Z,98616.53
2022-10-16T03:29:33.207Z,98613.44
2022-10-16T03:32:00.179Z,98619.38
2022-10-16T03:34:27.026Z,98619.72
2022-10-16T03:36:53.800Z,98612.66
2022-10-16T03:39:20.734Z,98612.22
2022-10-16T03:41:47.464Z,98619.59
2022-10-16T03:44:14.423Z,98610.94
2022-10-16T03:46:41.471Z,98613.56
2022-10-16T03:49:09.823Z,98616.16
2022-10-16T03:51:37.056Z,98626.63
2022-10-16T03:54:04.086Z,98627.09
2022-10-16T03:56:30.955Z,98618.09
2022-10-16T03:58:57.811Z,98622.28
2022-10-16T04:01:24.590Z,98618.09
2022-10-16T04:03:51.345Z,98620.03
2022-10-16T04:06:18.087Z,98607.50
2022-10-16T04:08:45.031Z,98610.69
2022-10-16T04:11:11.726Z,98612.16
2022-10-16T04:13:38.537Z,98601.56
2022-10-16T04:16:05.432Z,98607.38
2022-10-16T04:18:32.178Z,98612.03
2022-10-16T04:21:04.127Z,98621.50
2022-10-16T04:23:30.882Z,98617.97
2022-10-16T04:25:57.607Z,98629.81
2022-10-16T04:28:24.327Z,98629.34
2022-10-16T04:30:51.436Z,98632.44
2022-10-16T04:33:18.166Z,98644.38
2022-10-16T04:35:44.837Z,98639.13
2022-10-16T04:38:11.538Z,98647.31
2022-10-16T04:40:38.321Z,98653.13
2022-10-16T04:43:05.870Z,98656.19
2022-10-16T04:45:32.678Z,98660.50
2022-10-16T04:48:00.165Z,98667.25
2022-10-16T04:50:27.046Z,98664.53
2022-10-16T04:52:53.797Z,98662.56
2022-10-16T04:55:20.599Z,98664.06
2022-10-16T04:57:47.258Z,98658.34
2022-10-16T05:00:14.250Z,98652.25
2022-10-16T05:02:41.004Z,98648.59
2022-10-16T05:05:08.160Z,98646.53
2022-10-16T05:07:35.005Z,98650.25
2022-10-16T05:10:01.737Z,98655.25
2022-10-16T05:12:28.398Z,98647.88
2022-10-16T05:14:59.271Z,98667.94
2022-10-16T05:17:27.242Z,98660.97
2022-10-16T05:19:54.235Z,98675.78
2022-10-16T05:22:21.001Z,98668.72
2022-10-16T05:24:47.927Z,98660.88
2022-10-16T05:27:19.782Z,98662.66
2022-10-16T05:29:48.110Z,98662.53
2022-10-16T05:32:19.023Z,98669.47
2022-10-16T05:34:46.293Z,98667.19
2022-10-16T05:37:13.606Z,98680.19
2022-10-16T05:39:40.586Z,98674.06
2022-10-16T05:42:07.798Z,98679.53
2022-10-16T05:47:06.204Z,98686.78
2022-10-16T05:49:34.201Z,98685.03
2022-10-16T05:52:03.475Z,98677.97
2022-10-16T05:54:30.172Z,98676.84
2022-10-16T05:56:56.894Z,98671.84
2022-10-16T05:59:23.582Z,98674.72
2022-10-16T06:01:50.486Z,98689.97
2022-10-16T06:04:17.144Z,98688.03
2022-10-16T06:06:43.839Z,98693.19
2022-10-16T06:09:11.095Z,98687.38
2022-10-16T06:11:38.003Z,98674.38
2022-10-16T06:14:07.914Z,98675.38
2022-10-16T06:16:36.380Z,98687.78
2022-10-16T06:19:06.987Z,98692.91
2022-10-16T06:21:33.877Z,98688.84
2022-10-16T06:24:01.977Z,98689.78
2022-10-16T06:26:31.300Z,98707.78
2022-10-16T06:29:00.110Z,98713.72
2022-10-16T06:31:31.530Z,98710.97
2022-10-16T06:33:59.069Z,98715.97
2022-10-16T06:36:26.472Z,98708.75
2022-10-16T06:38:53.793Z,98716.16
2022-10-16T06:41:22.632Z,98719.69
2022-10-16T06:43:49.932Z,98726.75
2022-10-16T06:46:19.184Z,98721.44
2022-10-16T06:48:45.947Z,98727.38
2022-10-16T06:51:18.063Z,98738.31
2022-10-16T06:54:04.186Z,98741.50
2022-10-16T06:56:32.634Z,98749.50
2022-10-16T06:59:00.488Z,98745.78
2022-10-16T07:01:27.516Z,98747.38
2022-10-16T07:03:54.522Z,98755.91
2022-10-16T07:06:24.277Z,98750.13
2022-10-16T07:08:51.622Z,98752.50
2022-10-16T07:11:20.401Z,98747.38
2022-10-16T07:13:52.598Z,98756.06
2022-10-16T07:16:24.842Z,98760.69
2022-10-16T07:18:55.198Z,98760.03
2022-10-16T07:21:23.493Z,98755.50
2022-10-16T07:23:55.843Z,98756.13
2022-10-16T07:26:23.670Z,98759.78
2022-10-16T07:28:50.751Z,98765.53
2022-10-16T07:31:19.347Z,98774.91
2022-10-16T07:33:49.269Z,98778.84
2022-10-16T07:36:18.736Z,98788.94
2022-10-16T07:38:46.517Z,98790.00
2022-10-16T07:41:16.646Z,98790.31
2022-10-16T07:43:51.572Z,98787.28
2022-10-16T07:46:20.487Z,98784.31
2022-10-16T07:48:48.839Z,98784.56
2022-10-16T07:51:21.408Z,98787.34
2022-10-16T07:53:48.878Z,98794.00
2022-10-16T07:56:16.648Z,98797.66
2022-10-16T07:58:43.560Z,98803.69
2022-10-16T08:01:12.750Z,98792.06
2022-10-16T08:03:42.446Z,98795.41
2022-10-16T08:06:10.117Z,98797.91
2022-10-16T08:08:36.917Z,98805.22
2022-10-16T08:11:06.613Z,98810.50
2022-10-16T08:13:33.492Z,98816.56
2022-10-16T08:16:00.434Z,98817.13
2022-10-16T08:18:27.356Z,98820.56
2022-10-16T08:20:58.942Z,98812.25
2022-10-16T08:23:27.118Z,98813.63
2022-10-16T08:25:56.982Z,98809.41
2022-10-16T08:28:24.304Z,98809.41
2022-10-16T08:30:51.115Z,98809.84
2022-10-16T08:33:17.935Z,98809.16
2022-10-16T08:35:51.718Z,98807.00
2022-10-16T08:38:18.563Z,98813.97
2022-10-16T08:40:47.423Z,98813.06
2022-10-16T08:43:45.005Z,98821.13
2022-10-16T08:46:50.995Z,98812.78
2022-10-16T08:49:18.607Z,98810.50
2022-10-16T08:51:47.453Z,98820.66
2022-10-16T08:54:29.113Z,98834.13
2022-10-16T08:56:57.978Z,98827.38
2022-10-16T08:59:24.796Z,98834.66
2022-10-16T09:01:55.231Z,98830.66
2022-10-16T09:04:51.805Z,98835.22
2022-10-16T09:07:42.126Z,98841.25
2022-10-16T09:10:47.446Z,98839.53
2022-10-16T09:13:38.713Z,98844.97
2022-10-16T09:16:25.488Z,98856.28
2022-10-16T09:19:03.312Z,98849.47
2022-10-16T09:21:35.317Z,98847.25
2022-10-16T09:24:14.864Z,98842.31
2022-10-16T09:26:42.492Z,98847.88
2022-10-16T09:29:17.612Z,98848.88
2022-10-16T09:31:44.692Z,98859.81
2022-10-16T09:34:30.450Z,98869.00
2022-10-16T09:36:58.977Z,98872.91
2022-10-16T09:39:26.056Z,98880.81
2022-10-16T09:41:53.299Z,98886.00
2022-10-16T09:44:29.193Z,98881.75
2022-10-16T09:47:07.130Z,98880.91
2022-10-16T09:49:34.152Z,98891.41
2022-10-16T09:52:06.281Z,98895.25
2022-10-16T09:54:33.298Z,98897.13
2022-10-16T09:57:11.027Z,98892.00
2022-10-16T09:59:48.232Z,98893.72
2022-10-16T10:02:17.961Z,98889.53
2022-10-16T10:04:55.414Z,98900.56
2022-10-16T10:07:34.035Z,98904.38
2022-10-16T10:10:02.657Z,98915.47
2022-10-16T10:12:33.569Z,98910.63
2022-10-16T10:15:08.040Z,98918.38
2022-10-16T10:17:35.671Z,98914.09
2022-10-16T10:20:26.312Z,98918.53
2022-10-16T10:22:53.544Z,98923.66
2022-10-16T10:25:36.195Z,98919.91
2022-10-16T10:28:21.687Z,98927.94
2022-10-16T10:31:07.436Z,98927.00
2022-10-16T10:33:55.880Z,98926.03
2022-10-16T10:36:39.568Z,98923.06
2022-10-16T10:39:48.791Z,98925.34
2022-10-16T10:42:27.158Z,98916.53
2022-10-16T10:45:00.260Z,98922.09
2022-10-16T10:47:59.592Z,98921.97
2022-10-16T10:50:32.257Z,98916.16
2022-10-16T10:53:13.206Z,98918.72
2022-10-16T10:56:00.473Z,98914.84
2022-10-16T10:59:02.553Z,98920.31
2022-10-16T11:01:54.632Z,98917.78
2022-10-16T11:04:21.695Z,98911.84
2022-10-16T11:06:57.797Z,98914.75
2022-10-16T11:09:33.624Z,98906.50
2022-10-16T11:12:21.175Z,98912.22
2022-10-16T11:14:54.456Z,98920.25
2022-10-16T11:17:27.428Z,98926.03
2022-10-16T11:20:00.454Z,98926.75
2022-10-16T11:22:35.573Z,98925.91
2022-10-16T11:25:21.771Z,98922.91
2022-10-16T11:28:09.956Z,98920.41
2022-10-16T11:30:58.126Z,98917.63
2022-10-16T11:33:40.800Z,98925.41
2022-10-16T11:36:32.063Z,98920.38
2022-10-16T11:39:09.159Z,98916.94
2022-10-16T11:41:50.562Z,98906.41
2022-10-16T11:44:41.869Z,98902.03
2022-10-16T11:47:40.296Z,98904.66
2022-10-16T11:50:18.407Z,98898.72
2022-10-16T11:53:25.460Z,98899.78
2022-10-16T11:55:52.858Z,98905.25
2022-10-16T11:58:28.092Z,98904.47
2022-10-16T12:01:10.232Z,98903.13
2022-10-16T12:03:45.814Z,98903.38
2022-10-16T12:06:26.045Z,98908.94
2022-10-16T12:08:54.680Z,98917.31
2022-10-16T12:11:29.885Z,98904.47
2022-10-16T12:14:21.928Z,98904.84
2022-10-16T12:16:56.766Z,98904.91
2022-10-16T12:19:25.862Z,98905.56
2022-10-16T12:21:58.842Z,98908.75
2022-10-16T12:24:37.861Z,98909.88
2022-10-16T12:27:09.190Z,98906.75
2022-10-16T12:29:44.869Z,98903.03
2022-10-16T12:32:54.534Z,98904.75
2022-10-16T12:35:30.309Z,98905.72
2022-10-16T12:40:55.237Z,98900.03
2022-10-16T12:43:26.051Z,98897.91
2022-10-16T12:46:07.343Z,98903.34
2022-10-16T12:48:48.333Z,98901.09
2022-10-16T12:51:30.722Z,98903.56
2022-10-16T12:54:06.097Z,98907.13
2022-10-16T12:56:39.229Z,98909.41
2022-10-16T12:59:20.624Z,98906.03
2022-10-16T13:01:57.673Z,98905.44
2022-10-16T13:04:37.645Z,98906.59
2022-10-16T13:07:29.288Z,98910.47
2022-10-16T13:10:16.086Z,98919.09
2022-10-16T13:13:04.810Z,98924.00
2022-10-16T13:15:36.473Z,98916.97
2022-10-16T13:18:08.294Z,98924.75
2022-10-16T13:21:19.975Z,98918.03
2022-10-16T13:24:28.844Z,98919.13
2022-10-16T13:27:12.800Z,98921.97
2022-10-16T13:29:42.169Z,98914.94
2022-10-16T13:32:13.073Z,98909.91
2022-10-16T13:34:47.886Z,98918.25
2022-10-16T13:37:22.418Z,98915.63
2022-10-16T13:39:51.586Z,98908.72
2022-10-16T13:42:28.803Z,98908.69
2022-10-16T13:44:57.251Z,98907.44
2022-10-16T13:47:30.363Z,98913.63
2022-10-16T13:50:17.904Z,98910.13
2022-10-16T13:52:45.870Z,98903.41
2022-10-16T13:55:14.916Z,98914.75
2022-10-16T13:57:42.880Z,98907.44
2022-10-16T14:00:25.947Z,98906.06
2022-10-16T14:03:07.668Z,98911.78
2022-10-16T14:05:36.213Z,98919.38
2022-10-16T14:08:03.119Z,98913.44
2022-10-16T14:10:33.161Z,98920.91
2022-10-16T14:13:06.506Z,98917.72
2022-10-16T14:15:36.568Z,98924.78
2022-10-16T14:18:04.525Z,98921.50
2022-10-16T14:20:34.226Z,98915.94
2022-10-16T14:23:26.878Z,98918.28
2022-10-16T14:25:53.778Z,98917.03
2022-10-16T14:28:22.559Z,98923.34
2022-10-16T14:30:56.532Z,98927.72
2022-10-16T14:33:34.902Z,98925.50
2022-10-16T14:36:06.855Z,98924.81
2022-10-16T14:38:34.421Z,98920.16
2022-10-16T14:41:02.126Z,98910.72
2022-10-16T14:43:34.336Z,98908.81
2022-10-16T14:46:03.608Z,98912.81
2022-10-16T14:48:30.676Z,98906.53
2022-10-16T14:50:57.472Z,98910.41
2022-10-16T14:53:24.773Z,98912.41
2022-10-16T14:55:51.804Z,98911.16
2022-10-16T14:58:24.214Z,98915.03
2022-10-16T15:00:51.036Z,98920.91
2022-10-16T15:03:18.001Z,98922.06
2022-10-16T15:05:44.987Z,98920.56
2022-10-16T15:08:13.334Z,98920.47
2022-10-16T15:10:44.845Z,98919.56
2022-10-16T15:13:15.058Z,98917.91
2022-10-16T15:15:46.907Z,98922.72
2022-10-16T15:18:15.926Z,98926.13
2022-10-16T15:20:42.708Z,98921.63
2022-10-16T15:23:21.797Z,98927.16
2022-10-16T15:25:53.863Z,98925.59
2022-10-16T15:28:22.366Z,98925.59
2022-10-16T15:30:55.122Z,98927.50
2022-10-16T15:33:25.121Z,98919.97
2022-10-16T15:35:52.915Z,98927.38
2022-10-16T15:38:21.541Z,98915.19
2022-10-16T15:40:49.650Z,98919.91
2022-10-16T15:43:16.649Z,98926.13
2022-10-16T15:45:43.601Z,98925.19
2022-10-16T15:48:13.415Z,98928.88
2022-10-16T15:50:41.812Z,98924.31
2022-10-16T15:53:08.723Z,98928.53
2022-10-16T15:55:38.674Z,98924.53
2022-10-16T15:58:06.235Z,98921.31
2022-10-16T16:00:32.970Z,98922.44
2022-10-16T16:03:00.004Z,98924.75
2022-10-16T16:05:28.416Z,98921.84
2022-10-16T16:07:55.513Z,98930.25
2022-10-16T16:10:22.319Z,98922.91
2022-10-16T16:12:53.788Z,98927.72
2022-10-16T16:15:22.266Z,98929.69
2022-10-16T16:17:49.718Z,98930.56
2022-10-16T16:20:16.514Z,98932.00
2022-10-16T16:22:43.573Z,98932.16
2022-10-16T16:25:10.500Z,98929.59
2022-10-16T16:27:39.512Z,98933.06
2022-10-16T16:30:08.302Z,98936.78
2022-10-16T16:32:35.821Z,98932.66
2022-10-16T16:35:03.984Z,98940.78
2022-10-16T16:37:31.192Z,98935.22
2022-10-16T16:39:59.428Z,98937.06
2022-10-16T16:42:28.261Z,98944.41
2022-10-16T16:44:55.790Z,98950.16
2022-10-16T16:47:23.759Z,98944.09
2022-10-16T16:49:50.578Z,98943.66
2022-10-16T16:52:17.544Z,98951.38
2022-10-16T16:54:45.847Z,98956.63
2022-10-16T16:57:13.173Z,98956.53
2022-10-16T16:59:40.166Z,98964.66
2022-10-16T17:02:07.198Z,98966.97
2022-10-16T17:04:34.062Z,98966.75
2022-10-16T17:07:03.046Z,98965.84
2022-10-16T17:09:32.441Z,98964.16
2022-10-16T17:11:59.423Z,98970.69
2022-10-16T17:14:26.375Z,98978.47
2022-10-16T17:16:53.932Z,98977.47
2022-10-16T17:19:21.038Z,98972.75
2022-10-16T17:21:52.878Z,98973.66
2022-10-16T17:24:21.105Z,98986.94
2022-10-16T17:26:49.113Z,98983.06
2022-10-16T17:29:18.595Z,98983.38
2022-10-16T17:31:45.950Z,98979.72
2022-10-16T17:34:13.136Z,98991.28
2022-10-16T17:36:43.992Z,98991.28
2022-10-16T17:39:13.956Z,98987.41
2022-10-16T17:41:40.755Z,98994.81
2022-10-16T17:44:08.419Z,98997.91
2022-10-16T17:46:39.964Z,99002.72
2022-10-16T17:49:09.542Z,99003.41
2022-10-16T17:51:37.373Z,99002.13
2022-10-16T17:54:04.937Z,99010.47
2022-10-16T17:56:31.881Z,99000.53
2022-10-16T17:59:01.695Z,99011.72
2022-10-16T18:01:38.129Z,99007.25
2022-10-16T18:04:09.703Z,99015.34
2022-10-16T18:06:39.617Z,99021.19
2022-10-16T18:09:08.045Z,99023.00
2022-10-16T18:11:35.062Z,99021.63
2022-10-16T18:14:02.571Z,99023.41
2022-10-16T18:16:30.548Z,99027.28
2022-10-16T18:18:58.516Z,99029.56
2022-10-16T18:21:29.628Z,99025.22
2022-10-16T18:23:59.202Z,99030.69
2022-10-16T18:26:26.326Z,99038.34
2022-10-16T18:28:55.126Z,99036.59
2022-10-16T18:31:23.096Z,99036.34
2022-10-16T18:33:51.026Z,99035.84
2022-10-16T18:36:24.042Z,99048.41
2022-10-16T18:38:51.590Z,99036.88
2022-10-16T18:41:19.306Z,99038.81
2022-10-16T18:43:46.217Z,99037.22
2022-10-16T18:46:16.746Z,99034.81
2022-10-16T18:48:45.488Z,99037.34
2022-10-16T18:51:19.692Z,99031.50
2022-10-16T18:53:49.202Z,99034.47
2022-10-16T18:56:17.977Z,99038.09
2022-10-16T18:58:48.425Z,99036.69
2022-10-16T19:01:20.856Z,99035.28
2022-10-16T19:03:49.006Z,99043.84
2022-10-16T19:06:17.076Z,99044.53
2022-10-16T19:08:44.746Z,99042.31
2022-10-16T19:11:17.868Z,99042.03
2022-10-16T19:13:46.470Z,99049.63
2022-10-16T19:16:20.435Z,99047.56
2022-10-16T19:18:51.883Z,99056.69
2022-10-16T19:21:19.125Z,99052.84
2022-10-16T19:23:46.635Z,99061.88
2022-10-16T19:26:16.579Z,99057.06
2022-10-16T19:28:44.665Z,99057.44
2022-10-16T19:31:23.182Z,99064.38
2022-10-16T19:33:55.155Z,99056.22
2022-10-16T19:36:29.439Z,99053.13
2022-10-16T19:38:58.613Z,99065.56
2022-10-16T19:41:26.141Z,99064.28
2022-10-16T19:43:54.086Z,99066.53
2022-10-16T19:46:24.324Z,99070.75
2022-10-16T19:48:59.243Z,99069.16
2022-10-16T19:51:27.079Z,99080.09
2022-10-16T19:54:02.454Z,99080.22
2022-10-16T19:56:30.967Z,99090.50
2022-10-16T19:58:59.003Z,99091.31
2022-10-16T20:01:28.115Z,99095.97
2022-10-16T20:03:55.297Z,99099.84
2022-10-16T20:06:22.703Z,99104.09
2022-10-16T20:08:51.701Z,99098.00
2022-10-16T20:11:24.506Z,99098.19
2022-10-16T20:13:51.855Z,99102.38
2022-10-16T20:16:19.826Z,99111.56
2022-10-16T20:18:48.188Z,99114.31
2022-10-16T20:21:21.194Z,99122.16
2022-10-16T20:23:48.965Z,99120.91
2022-10-16T20:26:16.744Z,99124.75
2022-10-16T20:28:44.310Z,99124.59
2022-10-16T20:31:16.784Z,99129.59
2022-10-16T20:33:44.260Z,99134.59
2022-10-16T20:36:12.570Z,99133.63
2022-10-16T20:38:39.282Z,99140.09
2022-10-16T20:41:07.969Z,99142.66
2022-10-16T20:43:36.043Z,99139.44
2022-10-16T20:46:05.074Z,99144.44
2022-10-16T20:48:32.214Z,99147.81
2022-10-16T20:50:59.963Z,99153.28
2022-10-16T20:53:27.165Z,99147.97
2022-10-16T20:55:53.843Z,99152.97
2022-10-16T20:58:20.512Z,99155.06
2022-10-16T21:00:47.231Z,99145.09
2022-10-16T21:03:13.984Z,99155.41
2022-10-16T21:05:43.770Z,99154.56
2022-10-16T21:08:10.514Z,99157.16
2022-10-16T21:10:37.271Z,99158.13
2022-10-16T21:13:04.009Z,99164.22
2022-10-16T21:15:30.875Z,99156.03
2022-10-16T21:17:57.566Z,99158.75
2022-10-16T21:20:24.349Z,99154.59
2022-10-16T21:22:51.000Z,99155.41
2022-10-16T21:25:17.682Z,99158.91
2022-10-16T21:27:44.453Z,99154.28
2022-10-16T21:30:11.611Z,99156.66
2022-10-16T21:32:38.967Z,99157.16
2022-10-16T21:35:06.574Z,99147.50
2022-10-16T21:37:33.801Z,99159.41
2022-10-16T21:40:00.751Z,99158.63
2022-10-16T21:42:28.088Z,99157.81
2022-10-16T21:44:55.347Z,99154.44
2022-10-16T21:47:22.189Z,99161.66
2022-10-16T21:49:48.884Z,99167.78
2022-10-16T21:52:16.187Z,99168.72
2022-10-16T21:54:42.906Z,99172.75
2022-10-16T21:57:09.618Z,99172.41
2022-10-16T21:59:36.280Z,99163.91
2022-10-16T22:02:03.325Z,99165.03
2022-10-16T22:04:30.134Z,99174.66
2022-10-16T22:06:57.144Z,99168.88
2022-10-16T22:09:23.788Z,99174.03
2022-10-16T22:11:50.893Z,99176.28
2022-10-16T22:14:20.473Z,99177.56
2022-10-16T22:16:48.908Z,99172.41
2022-10-16T22:19:18.468Z,99181.91
2022-10-16T22:21:47.040Z,99180.78
2022-10-16T22:24:15.486Z,99181.91
2022-10-16T22:26:42.224Z,99171.94
2022-10-16T22:29:11.775Z,99178.69
2022-10-16T22:31:38.681Z,99184.47
2022-10-16T22:34:06.191Z,99175.66
2022-10-16T22:36:33.822Z,99174.69
2022-10-16T22:39:01.102Z,99178.16
2022-10-16T22:41:27.991Z,99175.94
2022-10-16T22:43:54.840Z,99169.28
2022-10-16T22:46:24.638Z,99168.63
2022-10-16T22:48:52.021Z,99174.44
2022-10-16T22:51:19.615Z,99172.03
2022-10-16T22:53:47.890Z,99179.28
2022-10-16T22:56:16.646Z,99177.97
2022-10-16T22:58:43.905Z,99182.31
2022-10-16T23:01:21.591Z,99189.22
2022-10-16T23:03:48.362Z,99192.94
2022-10-16T23:06:15.079Z,99190.25
2022-10-16T23:08:41.845Z,99198.28
2022-10-16T23:11:11.018Z,99191.53
2022-10-16T23:13:40.450Z,99201.38
2022-10-16T23:16:07.591Z,99201.69
2022-10-16T23:18:34.669Z,99213.09
2022-10-16T23:21:10.068Z,99211.66
2022-10-16T23:23:37.677Z,99213.09
2022-10-16T23:26:10.239Z,99220.31
2022-10-16T23:28:37.277Z,99226.91
2022-10-16T23:31:07.783Z,99234.31
2022-10-16T23:33:35.899Z,99233.88
2022-10-16T23:36:07.911Z,99231.13
2022-10-16T23:38:34.755Z,99237.22
2022-10-16T23:41:01.996Z,99232.06
2022-10-16T23:43:28.714Z,99233.06
2022-10-16T23:45:55.767Z,99236.25
2022-10-16T23:48:22.650Z,99231.25
2022-10-16T23:50:49.441Z,99231.41
2022-10-16T23:53:16.444Z,99232.38
2022-10-16T23:55:43.215Z,99234.78
2022-10-16T23:58:09.912Z,99229.66
